Forside
METAR-TAF:

METAR-TAF

Lufthavne :

Boulder City, Nevada, USA

Breddekreds: 35-56-50N, længdekreds: 114-51-37W, højde: 671 m

Aktuelle vejr

Denne rapport blev lavet for 25 minutter siden, kl. 07:35 UTC
Vind stille
Temperatur 12°C
Fugtighed 32%
Tryk 1018 hPa
Sigt: 16.1 km
Nogle få skyer i en højde af 5000 ft
Brudte skyer i en højde af 12000 ft

METAR: KBVU 220735Z AUTO 00000KT 10SM FEW050 BKN120 12/M04 A3005 RMK AO2

Tid: 00:00 (08:00 UTC)


TAF: fraværende

Vejrobservationer og prognoser fra mere end 4000 lufthavne (METAR og TAF).

De gule og røde prikker repræsenterer de meteorologiske stationer.

Flyt musen over at se navnet på stationen.

Så klik over at se vejr observationer og prognoser.

At skifte det kort: Klik på de grønne knapper med et sort kors for at zoome ind; på den grønne knap med en bindestreg for at zoome ud; eller på de grønne pile for tilstødende kort.


METAR-TAF: